sensor_id;sensor_type;location;lat;lon;timestamp;P1;durP1;ratioP1;P2;durP2;ratioP2
37677;SDS011;23517;50.390;8.616;2022-08-11T00:01:19;3.05;;;2.17;;
37677;SDS011;23517;50.390;8.616;2022-08-11T00:03:55;3.50;;;2.13;;
37677;SDS011;23517;50.390;8.616;2022-08-11T00:08:57;3.53;;;2.10;;
37677;SDS011;23517;50.390;8.616;2022-08-11T00:14:14;5.05;;;2.13;;
37677;SDS011;23517;50.390;8.616;2022-08-11T00:17:12;6.07;;;2.13;;
37677;SDS011;23517;50.390;8.616;2022-08-11T00:19:42;2.25;;;1.77;;
37677;SDS011;23517;50.390;8.616;2022-08-11T00:22:32;3.72;;;2.00;;
37677;SDS011;23517;50.390;8.616;2022-08-11T00:25:13;7.00;;;2.33;;
37677;SDS011;23517;50.390;8.616;2022-08-11T00:27:43;3.78;;;2.13;;
37677;SDS011;23517;50.390;8.616;2022-08-11T00:30:12;8.18;;;2.00;;
37677;SDS011;23517;50.390;8.616;2022-08-11T00:32:41;2.38;;;1.80;;
37677;SDS011;23517;50.390;8.616;2022-08-11T00:35:18;4.72;;;1.77;;
37677;SDS011;23517;50.390;8.616;2022-08-11T00:38:11;2.20;;;2.00;;
37677;SDS011;23517;50.390;8.616;2022-08-11T00:41:00;7.13;;;2.30;;
37677;SDS011;23517;50.390;8.616;2022-08-11T00:46:40;2.72;;;2.42;;
37677;SDS011;23517;50.390;8.616;2022-08-11T00:49:31;5.18;;;2.40;;
37677;SDS011;23517;50.390;8.616;2022-08-11T00:52:12;3.95;;;2.20;;
37677;SDS011;23517;50.390;8.616;2022-08-11T00:54:59;2.35;;;2.15;;
37677;SDS011;23517;50.390;8.616;2022-08-11T00:58:00;2.38;;;2.10;;
37677;SDS011;23517;50.390;8.616;2022-08-11T01:09:20;3.08;;;2.10;;
37677;SDS011;23517;50.390;8.616;2022-08-11T01:28:11;4.35;;;2.47;;
37677;SDS011;23517;50.390;8.616;2022-08-11T01:54:23;6.13;;;2.10;;
37677;SDS011;23517;50.390;8.616;2022-08-11T01:57:10;3.35;;;2.00;;
37677;SDS011;23517;50.390;8.616;2022-08-11T02:00:07;3.45;;;2.45;;
37677;SDS011;23517;50.390;8.616;2022-08-11T02:02:52;3.53;;;2.47;;
37677;SDS011;23517;50.390;8.616;2022-08-11T02:08:58;3.80;;;2.30;;
37677;SDS011;23517;50.390;8.616;2022-08-11T02:11:46;3.40;;;2.28;;
37677;SDS011;23517;50.390;8.616;2022-08-11T02:14:19;7.22;;;2.53;;
37677;SDS011;23517;50.390;8.616;2022-08-11T02:17:06;4.53;;;2.28;;
37677;SDS011;23517;50.390;8.616;2022-08-11T02:23:30;4.95;;;2.65;;
37677;SDS011;23517;50.390;8.616;2022-08-11T02:26:33;3.53;;;2.60;;
37677;SDS011;23517;50.390;8.616;2022-08-11T02:35:28;7.18;;;2.65;;
37677;SDS011;23517;50.390;8.616;2022-08-11T02:38:29;4.10;;;2.20;;
37677;SDS011;23517;50.390;8.616;2022-08-11T02:41:15;4.45;;;2.72;;
37677;SDS011;23517;50.390;8.616;2022-08-11T02:47:43;4.80;;;2.50;;
37677;SDS011;23517;50.390;8.616;2022-08-11T02:51:04;3.33;;;2.33;;
37677;SDS011;23517;50.390;8.616;2022-08-11T03:05:26;2.67;;;2.47;;
37677;SDS011;23517;50.390;8.616;2022-08-11T03:08:43;3.28;;;2.83;;
37677;SDS011;23517;50.390;8.616;2022-08-11T03:14:28;6.13;;;2.67;;
37677;SDS011;23517;50.390;8.616;2022-08-11T03:20:32;4.88;;;2.45;;
37677;SDS011;23517;50.390;8.616;2022-08-11T03:29:10;3.20;;;2.78;;
37677;SDS011;23517;50.390;8.616;2022-08-11T03:32:00;7.03;;;2.70;;
37677;SDS011;23517;50.390;8.616;2022-08-11T03:34:37;7.40;;;2.88;;
37677;SDS011;23517;50.390;8.616;2022-08-11T03:43:35;4.75;;;2.90;;
37677;SDS011;23517;50.390;8.616;2022-08-11T04:20:21;4.70;;;2.70;;
37677;SDS011;23517;50.390;8.616;2022-08-11T04:23:57;6.30;;;2.80;;
37677;SDS011;23517;50.390;8.616;2022-08-11T04:36:03;9.02;;;2.92;;
37677;SDS011;23517;50.390;8.616;2022-08-11T04:59:07;9.07;;;2.55;;
37677;SDS011;23517;50.390;8.616;2022-08-11T05:02:22;4.18;;;2.70;;
37677;SDS011;23517;50.390;8.616;2022-08-11T05:05:21;9.13;;;2.70;;
37677;SDS011;23517;50.390;8.616;2022-08-11T05:11:38;4.18;;;2.20;;
37677;SDS011;23517;50.390;8.616;2022-08-11T05:14:29;6.03;;;2.58;;
37677;SDS011;23517;50.390;8.616;2022-08-11T05:17:26;5.22;;;2.40;;
37677;SDS011;23517;50.390;8.616;2022-08-11T05:20:20;8.90;;;2.42;;
37677;SDS011;23517;50.390;8.616;2022-08-11T05:23:09;3.42;;;2.58;;
37677;SDS011;23517;50.390;8.616;2022-08-11T05:25:56;4.72;;;2.40;;
37677;SDS011;23517;50.390;8.616;2022-08-11T05:29:04;10.48;;;2.70;;
37677;SDS011;23517;50.390;8.616;2022-08-11T05:32:37;14.05;;;2.70;;
37677;SDS011;23517;50.390;8.616;2022-08-11T05:35:40;4.25;;;2.40;;
37677;SDS011;23517;50.390;8.616;2022-08-11T05:38:29;6.45;;;2.60;;
37677;SDS011;23517;50.390;8.616;2022-08-11T05:41:21;13.70;;;2.95;;
37677;SDS011;23517;50.390;8.616;2022-08-11T05:44:10;9.40;;;2.20;;
37677;SDS011;23517;50.390;8.616;2022-08-11T05:47:02;6.15;;;2.38;;
37677;SDS011;23517;50.390;8.616;2022-08-11T05:49:49;4.53;;;2.33;;
37677;SDS011;23517;50.390;8.616;2022-08-11T05:52:43;5.95;;;2.20;;
37677;SDS011;23517;50.390;8.616;2022-08-11T05:55:46;5.82;;;2.40;;
37677;SDS011;23517;50.390;8.616;2022-08-11T05:58:34;2.50;;;2.03;;
37677;SDS011;23517;50.390;8.616;2022-08-11T06:01:08;8.10;;;2.15;;
37677;SDS011;23517;50.390;8.616;2022-08-11T06:03:38;37.25;;;4.22;;
37677;SDS011;23517;50.390;8.616;2022-08-11T06:06:28;6.60;;;2.00;;
37677;SDS011;23517;50.390;8.616;2022-08-11T06:08:56;12.88;;;2.25;;
37677;SDS011;23517;50.390;8.616;2022-08-11T06:11:24;35.95;;;3.33;;
37677;SDS011;23517;50.390;8.616;2022-08-11T06:14:10;5.80;;;1.83;;
37677;SDS011;23517;50.390;8.616;2022-08-11T06:16:39;5.35;;;1.63;;
37677;SDS011;23517;50.390;8.616;2022-08-11T06:19:08;5.35;;;1.55;;
37677;SDS011;23517;50.390;8.616;2022-08-11T06:21:35;9.27;;;2.17;;
37677;SDS011;23517;50.390;8.616;2022-08-11T06:24:04;11.25;;;1.88;;
37677;SDS011;23517;50.390;8.616;2022-08-11T06:26:38;5.25;;;1.70;;
37677;SDS011;23517;50.390;8.616;2022-08-11T06:29:26;8.25;;;1.85;;
37677;SDS011;23517;50.390;8.616;2022-08-11T06:32:12;6.18;;;2.03;;
37677;SDS011;23517;50.390;8.616;2022-08-11T06:37:52;8.32;;;1.70;;
37677;SDS011;23517;50.390;8.616;2022-08-11T06:43:44;7.32;;;1.70;;
37677;SDS011;23517;50.390;8.616;2022-08-11T06:46:36;6.43;;;1.50;;
37677;SDS011;23517;50.390;8.616;2022-08-11T06:49:19;3.85;;;1.50;;
37677;SDS011;23517;50.390;8.616;2022-08-11T06:52:12;13.50;;;2.13;;
37677;SDS011;23517;50.390;8.616;2022-08-11T06:55:04;5.90;;;1.92;;
37677;SDS011;23517;50.390;8.616;2022-08-11T06:58:21;4.45;;;1.67;;
37677;SDS011;23517;50.390;8.616;2022-08-11T07:01:15;4.25;;;1.35;;
37677;SDS011;23517;50.390;8.616;2022-08-11T07:03:55;4.47;;;1.55;;
37677;SDS011;23517;50.390;8.616;2022-08-11T07:06:38;2.65;;;1.70;;
37677;SDS011;23517;50.390;8.616;2022-08-11T07:12:54;6.75;;;1.48;;
37677;SDS011;23517;50.390;8.616;2022-08-11T07:16:02;6.95;;;1.40;;
37677;SDS011;23517;50.390;8.616;2022-08-11T07:18:38;6.35;;;1.98;;
37677;SDS011;23517;50.390;8.616;2022-08-11T07:21:27;7.55;;;1.40;;
37677;SDS011;23517;50.390;8.616;2022-08-11T07:24:31;7.60;;;2.13;;
37677;SDS011;23517;50.390;8.616;2022-08-11T07:27:30;6.32;;;1.90;;
37677;SDS011;23517;50.390;8.616;2022-08-11T07:30:26;4.70;;;1.80;;
37677;SDS011;23517;50.390;8.616;2022-08-11T07:32:54;4.57;;;1.60;;
37677;SDS011;23517;50.390;8.616;2022-08-11T07:35:31;3.33;;;1.45;;
37677;SDS011;23517;50.390;8.616;2022-08-11T07:38:05;4.88;;;1.58;;
37677;SDS011;23517;50.390;8.616;2022-08-11T07:40:50;2.78;;;1.50;;
37677;SDS011;23517;50.390;8.616;2022-08-11T07:43:17;6.10;;;1.70;;
37677;SDS011;23517;50.390;8.616;2022-08-11T07:45:44;2.42;;;1.38;;
37677;SDS011;23517;50.390;8.616;2022-08-11T07:48:30;4.60;;;1.60;;
37677;SDS011;23517;50.390;8.616;2022-08-11T07:51:20;5.90;;;1.52;;
37677;SDS011;23517;50.390;8.616;2022-08-11T07:54:06;5.88;;;1.45;;
37677;SDS011;23517;50.390;8.616;2022-08-11T07:56:42;5.80;;;1.30;;
37677;SDS011;23517;50.390;8.616;2022-08-11T07:59:30;1.80;;;1.30;;
37677;SDS011;23517;50.390;8.616;2022-08-11T08:02:30;2.88;;;1.23;;
37677;SDS011;23517;50.390;8.616;2022-08-11T08:05:16;5.85;;;1.45;;
37677;SDS011;23517;50.390;8.616;2022-08-11T08:08:02;5.32;;;1.33;;
37677;SDS011;23517;50.390;8.616;2022-08-11T08:10:50;3.13;;;1.40;;
37677;SDS011;23517;50.390;8.616;2022-08-11T08:13:42;3.83;;;1.73;;
37677;SDS011;23517;50.390;8.616;2022-08-11T08:16:29;1.98;;;1.42;;
37677;SDS011;23517;50.390;8.616;2022-08-11T08:19:16;3.45;;;1.33;;
37677;SDS011;23517;50.390;8.616;2022-08-11T08:21:45;5.30;;;1.65;;
37677;SDS011;23517;50.390;8.616;2022-08-11T08:24:13;2.78;;;1.75;;
37677;SDS011;23517;50.390;8.616;2022-08-11T08:26:42;5.22;;;1.70;;
37677;SDS011;23517;50.390;8.616;2022-08-11T08:29:25;3.28;;;1.67;;
37677;SDS011;23517;50.390;8.616;2022-08-11T08:32:19;6.35;;;1.42;;
37677;SDS011;23517;50.390;8.616;2022-08-11T08:34:48;7.65;;;2.10;;
37677;SDS011;23517;50.390;8.616;2022-08-11T08:37:17;2.33;;;1.65;;
37677;SDS011;23517;50.390;8.616;2022-08-11T08:40:06;9.63;;;1.85;;
37677;SDS011;23517;50.390;8.616;2022-08-11T08:42:38;6.65;;;2.00;;
37677;SDS011;23517;50.390;8.616;2022-08-11T08:45:13;3.65;;;1.75;;
37677;SDS011;23517;50.390;8.616;2022-08-11T08:47:50;9.02;;;1.83;;
37677;SDS011;23517;50.390;8.616;2022-08-11T08:50:25;6.15;;;1.60;;
37677;SDS011;23517;50.390;8.616;2022-08-11T08:53:19;3.80;;;1.27;;
37677;SDS011;23517;50.390;8.616;2022-08-11T08:55:54;6.07;;;1.90;;
37677;SDS011;23517;50.390;8.616;2022-08-11T08:58:25;3.20;;;1.40;;
37677;SDS011;23517;50.390;8.616;2022-08-11T09:00:53;7.13;;;1.73;;
37677;SDS011;23517;50.390;8.616;2022-08-11T09:03:21;4.45;;;1.33;;
37677;SDS011;23517;50.390;8.616;2022-08-11T09:06:09;6.20;;;1.52;;
37677;SDS011;23517;50.390;8.616;2022-08-11T09:08:41;4.80;;;1.42;;
37677;SDS011;23517;50.390;8.616;2022-08-11T09:11:10;3.88;;;1.65;;
37677;SDS011;23517;50.390;8.616;2022-08-11T09:13:59;4.35;;;1.50;;
37677;SDS011;23517;50.390;8.616;2022-08-11T09:16:34;6.65;;;1.65;;
37677;SDS011;23517;50.390;8.616;2022-08-11T09:19:02;5.85;;;1.60;;
37677;SDS011;23517;50.390;8.616;2022-08-11T09:21:29;6.15;;;1.50;;
37677;SDS011;23517;50.390;8.616;2022-08-11T09:24:14;7.38;;;1.30;;
37677;SDS011;23517;50.390;8.616;2022-08-11T09:27:05;5.57;;;1.35;;
37677;SDS011;23517;50.390;8.616;2022-08-11T09:29:33;2.38;;;1.42;;
37677;SDS011;23517;50.390;8.616;2022-08-11T09:32:02;4.43;;;1.40;;
37677;SDS011;23517;50.390;8.616;2022-08-11T09:34:32;4.63;;;1.40;;
37677;SDS011;23517;50.390;8.616;2022-08-11T09:37:02;5.72;;;1.83;;
37677;SDS011;23517;50.390;8.616;2022-08-11T09:40:14;2.65;;;1.52;;
37677;SDS011;23517;50.390;8.616;2022-08-11T09:42:58;4.22;;;1.60;;
37677;SDS011;23517;50.390;8.616;2022-08-11T09:45:52;7.25;;;1.35;;
37677;SDS011;23517;50.390;8.616;2022-08-11T09:48:21;5.57;;;1.50;;
37677;SDS011;23517;50.390;8.616;2022-08-11T09:50:53;4.82;;;1.58;;
37677;SDS011;23517;50.390;8.616;2022-08-11T09:53:23;11.07;;;1.70;;
37677;SDS011;23517;50.390;8.616;2022-08-11T09:56:12;7.05;;;1.55;;
37677;SDS011;23517;50.390;8.616;2022-08-11T09:59:00;5.80;;;1.40;;
37677;SDS011;23517;50.390;8.616;2022-08-11T10:01:30;8.57;;;1.48;;
37677;SDS011;23517;50.390;8.616;2022-08-11T10:04:12;2.72;;;1.23;;
37677;SDS011;23517;50.390;8.616;2022-08-11T10:06:48;4.22;;;1.52;;
37677;SDS011;23517;50.390;8.616;2022-08-11T10:09:43;4.70;;;1.50;;
37677;SDS011;23517;50.390;8.616;2022-08-11T10:12:19;5.05;;;1.35;;
37677;SDS011;23517;50.390;8.616;2022-08-11T10:14:54;2.15;;;1.23;;
37677;SDS011;23517;50.390;8.616;2022-08-11T10:17:47;5.75;;;1.40;;
37677;SDS011;23517;50.390;8.616;2022-08-11T10:20:37;3.85;;;1.27;;
37677;SDS011;23517;50.390;8.616;2022-08-11T10:23:05;4.80;;;1.50;;
37677;SDS011;23517;50.390;8.616;2022-08-11T10:25:54;4.40;;;1.60;;
37677;SDS011;23517;50.390;8.616;2022-08-11T10:28:42;3.70;;;1.50;;
37677;SDS011;23517;50.390;8.616;2022-08-11T10:31:29;5.03;;;1.77;;
37677;SDS011;23517;50.390;8.616;2022-08-11T10:34:24;4.95;;;1.70;;
37677;SDS011;23517;50.390;8.616;2022-08-11T10:36:54;6.80;;;1.70;;
37677;SDS011;23517;50.390;8.616;2022-08-11T10:39:22;5.88;;;1.73;;
37677;SDS011;23517;50.390;8.616;2022-08-11T10:41:49;7.63;;;1.90;;
37677;SDS011;23517;50.390;8.616;2022-08-11T10:44:56;5.68;;;1.48;;
37677;SDS011;23517;50.390;8.616;2022-08-11T10:47:24;7.07;;;1.45;;
37677;SDS011;23517;50.390;8.616;2022-08-11T10:50:07;6.07;;;1.40;;
37677;SDS011;23517;50.390;8.616;2022-08-11T10:53:01;3.08;;;1.60;;
37677;SDS011;23517;50.390;8.616;2022-08-11T10:55:47;7.00;;;1.88;;
37677;SDS011;23517;50.390;8.616;2022-08-11T10:58:33;5.15;;;1.63;;
37677;SDS011;23517;50.390;8.616;2022-08-11T11:01:29;3.10;;;1.60;;
37677;SDS011;23517;50.390;8.616;2022-08-11T11:04:22;3.92;;;1.58;;
37677;SDS011;23517;50.390;8.616;2022-08-11T11:09:53;3.25;;;1.55;;
37677;SDS011;23517;50.390;8.616;2022-08-11T11:12:36;11.93;;;2.17;;
37677;SDS011;23517;50.390;8.616;2022-08-11T11:15:28;7.07;;;1.70;;
37677;SDS011;23517;50.390;8.616;2022-08-11T11:18:29;5.90;;;1.88;;
37677;SDS011;23517;50.390;8.616;2022-08-11T11:21:06;4.18;;;1.52;;
37677;SDS011;23517;50.390;8.616;2022-08-11T11:23:40;1.77;;;1.45;;
37677;SDS011;23517;50.390;8.616;2022-08-11T11:26:41;6.65;;;1.55;;
37677;SDS011;23517;50.390;8.616;2022-08-11T11:37:42;3.85;;;1.67;;
37677;SDS011;23517;50.390;8.616;2022-08-11T11:40:30;4.65;;;1.48;;
37677;SDS011;23517;50.390;8.616;2022-08-11T11:42:58;7.75;;;1.90;;
37677;SDS011;23517;50.390;8.616;2022-08-11T11:45:26;6.75;;;1.70;;
37677;SDS011;23517;50.390;8.616;2022-08-11T11:47:54;6.32;;;1.40;;
37677;SDS011;23517;50.390;8.616;2022-08-11T11:50:25;5.85;;;1.65;;
37677;SDS011;23517;50.390;8.616;2022-08-11T11:52:57;8.15;;;1.70;;
37677;SDS011;23517;50.390;8.616;2022-08-11T11:55:29;3.65;;;1.60;;
37677;SDS011;23517;50.390;8.616;2022-08-11T11:57:57;4.35;;;1.63;;
37677;SDS011;23517;50.390;8.616;2022-08-11T12:00:47;3.78;;;1.65;;
37677;SDS011;23517;50.390;8.616;2022-08-11T12:03:36;3.40;;;1.48;;
37677;SDS011;23517;50.390;8.616;2022-08-11T12:06:06;3.72;;;1.73;;
37677;SDS011;23517;50.390;8.616;2022-08-11T12:08:34;9.65;;;1.90;;
37677;SDS011;23517;50.390;8.616;2022-08-11T12:11:02;4.80;;;1.40;;
37677;SDS011;23517;50.390;8.616;2022-08-11T12:13:52;9.75;;;1.83;;
37677;SDS011;23517;50.390;8.616;2022-08-11T12:16:23;4.15;;;1.40;;
37677;SDS011;23517;50.390;8.616;2022-08-11T12:19:01;4.50;;;1.55;;
37677;SDS011;23517;50.390;8.616;2022-08-11T12:21:33;3.30;;;1.42;;
37677;SDS011;23517;50.390;8.616;2022-08-11T12:24:02;5.28;;;1.75;;
37677;SDS011;23517;50.390;8.616;2022-08-11T12:26:54;10.68;;;1.85;;
37677;SDS011;23517;50.390;8.616;2022-08-11T12:29:44;6.15;;;1.60;;
37677;SDS011;23517;50.390;8.616;2022-08-11T12:32:31;3.25;;;1.58;;
37677;SDS011;23517;50.390;8.616;2022-08-11T12:35:01;3.63;;;1.77;;
37677;SDS011;23517;50.390;8.616;2022-08-11T12:37:30;2.13;;;1.80;;
37677;SDS011;23517;50.390;8.616;2022-08-11T12:40:06;8.52;;;1.88;;
37677;SDS011;23517;50.390;8.616;2022-08-11T12:43:19;8.40;;;1.70;;
37677;SDS011;23517;50.390;8.616;2022-08-11T12:46:07;4.00;;;1.80;;
37677;SDS011;23517;50.390;8.616;2022-08-11T12:48:40;3.22;;;1.75;;
37677;SDS011;23517;50.390;8.616;2022-08-11T12:51:34;5.97;;;1.80;;
37677;SDS011;23517;50.390;8.616;2022-08-11T12:54:58;5.28;;;1.73;;
37677;SDS011;23517;50.390;8.616;2022-08-11T12:57:40;3.17;;;1.55;;
37677;SDS011;23517;50.390;8.616;2022-08-11T13:00:29;3.42;;;1.25;;
37677;SDS011;23517;50.390;8.616;2022-08-11T13:03:19;3.67;;;1.80;;
37677;SDS011;23517;50.390;8.616;2022-08-11T13:06:06;2.95;;;1.70;;
37677;SDS011;23517;50.390;8.616;2022-08-11T13:08:34;3.13;;;1.48;;
37677;SDS011;23517;50.390;8.616;2022-08-11T13:11:03;5.50;;;1.58;;
37677;SDS011;23517;50.390;8.616;2022-08-11T13:14:10;2.53;;;1.50;;
37677;SDS011;23517;50.390;8.616;2022-08-11T13:16:40;2.72;;;1.58;;
37677;SDS011;23517;50.390;8.616;2022-08-11T13:19:27;5.45;;;1.30;;
37677;SDS011;23517;50.390;8.616;2022-08-11T13:21:56;4.45;;;1.80;;
37677;SDS011;23517;50.390;8.616;2022-08-11T13:24:23;6.32;;;1.73;;
37677;SDS011;23517;50.390;8.616;2022-08-11T13:26:50;4.72;;;1.30;;
37677;SDS011;23517;50.390;8.616;2022-08-11T13:29:21;3.60;;;1.42;;
37677;SDS011;23517;50.390;8.616;2022-08-11T13:31:50;3.97;;;1.65;;
37677;SDS011;23517;50.390;8.616;2022-08-11T13:34:20;4.57;;;1.67;;
37677;SDS011;23517;50.390;8.616;2022-08-11T13:36:50;5.35;;;1.52;;
37677;SDS011;23517;50.390;8.616;2022-08-11T13:39:20;3.28;;;2.05;;
37677;SDS011;23517;50.390;8.616;2022-08-11T13:41:55;3.33;;;1.52;;
37677;SDS011;23517;50.390;8.616;2022-08-11T13:44:35;2.03;;;1.58;;
37677;SDS011;23517;50.390;8.616;2022-08-11T13:47:05;3.85;;;1.60;;
37677;SDS011;23517;50.390;8.616;2022-08-11T13:49:35;8.15;;;1.65;;
37677;SDS011;23517;50.390;8.616;2022-08-11T13:52:07;8.43;;;2.03;;
37677;SDS011;23517;50.390;8.616;2022-08-11T13:54:38;3.35;;;1.73;;
37677;SDS011;23517;50.390;8.616;2022-08-11T13:57:08;3.22;;;1.80;;
37677;SDS011;23517;50.390;8.616;2022-08-11T13:59:59;1.67;;;1.30;;
37677;SDS011;23517;50.390;8.616;2022-08-11T14:02:52;5.50;;;1.65;;
37677;SDS011;23517;50.390;8.616;2022-08-11T14:05:26;5.07;;;1.80;;
37677;SDS011;23517;50.390;8.616;2022-08-11T14:08:00;7.63;;;1.65;;
37677;SDS011;23517;50.390;8.616;2022-08-11T14:10:31;3.67;;;1.50;;
37677;SDS011;23517;50.390;8.616;2022-08-11T14:13:05;4.35;;;1.60;;
37677;SDS011;23517;50.390;8.616;2022-08-11T14:16:12;2.83;;;1.60;;
37677;SDS011;23517;50.390;8.616;2022-08-11T14:18:51;4.57;;;1.65;;
37677;SDS011;23517;50.390;8.616;2022-08-11T14:21:20;9.20;;;1.58;;
37677;SDS011;23517;50.390;8.616;2022-08-11T14:24:08;8.52;;;1.80;;
37677;SDS011;23517;50.390;8.616;2022-08-11T14:26:39;6.50;;;1.67;;
37677;SDS011;23517;50.390;8.616;2022-08-11T14:29:10;3.20;;;1.50;;
37677;SDS011;23517;50.390;8.616;2022-08-11T14:31:44;3.58;;;1.60;;
37677;SDS011;23517;50.390;8.616;2022-08-11T14:34:12;7.45;;;1.67;;
37677;SDS011;23517;50.390;8.616;2022-08-11T14:36:46;2.88;;;1.58;;
37677;SDS011;23517;50.390;8.616;2022-08-11T14:39:44;4.88;;;1.65;;
37677;SDS011;23517;50.390;8.616;2022-08-11T14:42:58;8.73;;;1.80;;
37677;SDS011;23517;50.390;8.616;2022-08-11T14:46:04;4.95;;;1.50;;
37677;SDS011;23517;50.390;8.616;2022-08-11T14:48:58;8.52;;;1.98;;
37677;SDS011;23517;50.390;8.616;2022-08-11T14:51:25;6.00;;;1.67;;
37677;SDS011;23517;50.390;8.616;2022-08-11T14:53:53;3.50;;;1.92;;
37677;SDS011;23517;50.390;8.616;2022-08-11T14:56:41;12.88;;;2.10;;
37677;SDS011;23517;50.390;8.616;2022-08-11T14:59:10;6.13;;;2.00;;
37677;SDS011;23517;50.390;8.616;2022-08-11T15:01:38;3.35;;;1.55;;
37677;SDS011;23517;50.390;8.616;2022-08-11T15:04:24;8.63;;;1.73;;
37677;SDS011;23517;50.390;8.616;2022-08-11T15:07:01;4.30;;;1.52;;
37677;SDS011;23517;50.390;8.616;2022-08-11T15:09:28;4.88;;;1.67;;
37677;SDS011;23517;50.390;8.616;2022-08-11T15:11:55;4.03;;;1.63;;
37677;SDS011;23517;50.390;8.616;2022-08-11T15:14:58;4.43;;;1.58;;
37677;SDS011;23517;50.390;8.616;2022-08-11T15:17:53;3.70;;;1.50;;
37677;SDS011;23517;50.390;8.616;2022-08-11T15:20:24;4.78;;;1.63;;
37677;SDS011;23517;50.390;8.616;2022-08-11T15:23:11;7.32;;;1.73;;
37677;SDS011;23517;50.390;8.616;2022-08-11T15:26:11;6.32;;;1.88;;
37677;SDS011;23517;50.390;8.616;2022-08-11T15:28:45;4.63;;;1.63;;
37677;SDS011;23517;50.390;8.616;2022-08-11T15:31:35;4.15;;;1.95;;
37677;SDS011;23517;50.390;8.616;2022-08-11T15:34:15;2.90;;;1.83;;
37677;SDS011;23517;50.390;8.616;2022-08-11T15:37:06;2.97;;;1.80;;
37677;SDS011;23517;50.390;8.616;2022-08-11T15:39:55;5.38;;;1.80;;
37677;SDS011;23517;50.390;8.616;2022-08-11T15:43:09;4.00;;;1.55;;
37677;SDS011;23517;50.390;8.616;2022-08-11T15:46:29;5.55;;;1.70;;
37677;SDS011;23517;50.390;8.616;2022-08-11T15:49:10;3.78;;;1.70;;
37677;SDS011;23517;50.390;8.616;2022-08-11T15:51:59;2.92;;;1.63;;
37677;SDS011;23517;50.390;8.616;2022-08-11T15:54:32;3.05;;;1.60;;
37677;SDS011;23517;50.390;8.616;2022-08-11T15:57:04;3.42;;;2.03;;
37677;SDS011;23517;50.390;8.616;2022-08-11T15:59:33;5.82;;;1.88;;
37677;SDS011;23517;50.390;8.616;2022-08-11T16:02:21;3.35;;;1.52;;
37677;SDS011;23517;50.390;8.616;2022-08-11T16:04:50;5.32;;;1.55;;
37677;SDS011;23517;50.390;8.616;2022-08-11T16:07:19;6.50;;;1.88;;
37677;SDS011;23517;50.390;8.616;2022-08-11T16:09:54;5.15;;;1.92;;
37677;SDS011;23517;50.390;8.616;2022-08-11T16:12:29;5.88;;;1.67;;
37677;SDS011;23517;50.390;8.616;2022-08-11T16:15:02;7.35;;;2.00;;
37677;SDS011;23517;50.390;8.616;2022-08-11T16:17:51;5.03;;;1.90;;
37677;SDS011;23517;50.390;8.616;2022-08-11T16:20:28;3.20;;;1.85;;
37677;SDS011;23517;50.390;8.616;2022-08-11T16:22:58;4.88;;;1.60;;
37677;SDS011;23517;50.390;8.616;2022-08-11T16:25:31;3.45;;;1.90;;
37677;SDS011;23517;50.390;8.616;2022-08-11T16:28:20;5.97;;;1.65;;
37677;SDS011;23517;50.390;8.616;2022-08-11T16:30:48;4.25;;;1.73;;
37677;SDS011;23517;50.390;8.616;2022-08-11T16:33:17;2.58;;;1.70;;
37677;SDS011;23517;50.390;8.616;2022-08-11T16:36:09;5.07;;;1.80;;
37677;SDS011;23517;50.390;8.616;2022-08-11T16:38:56;5.65;;;1.80;;
37677;SDS011;23517;50.390;8.616;2022-08-11T16:41:26;1.88;;;1.63;;
37677;SDS011;23517;50.390;8.616;2022-08-11T16:44:17;6.28;;;1.95;;
37677;SDS011;23517;50.390;8.616;2022-08-11T16:47:08;3.65;;;1.73;;
37677;SDS011;23517;50.390;8.616;2022-08-11T16:49:42;3.28;;;1.90;;
37677;SDS011;23517;50.390;8.616;2022-08-11T16:52:18;5.43;;;1.70;;
37677;SDS011;23517;50.390;8.616;2022-08-11T16:54:47;4.93;;;1.92;;
37677;SDS011;23517;50.390;8.616;2022-08-11T16:57:14;3.78;;;1.52;;
37677;SDS011;23517;50.390;8.616;2022-08-11T17:00:11;4.93;;;1.88;;
37677;SDS011;23517;50.390;8.616;2022-08-11T17:02:43;4.93;;;1.67;;
37677;SDS011;23517;50.390;8.616;2022-08-11T17:05:41;4.25;;;1.50;;
37677;SDS011;23517;50.390;8.616;2022-08-11T17:08:34;7.20;;;1.67;;
37677;SDS011;23517;50.390;8.616;2022-08-11T17:11:34;5.55;;;1.70;;
37677;SDS011;23517;50.390;8.616;2022-08-11T17:14:35;8.10;;;2.10;;
37677;SDS011;23517;50.390;8.616;2022-08-11T17:17:12;6.30;;;1.80;;
37677;SDS011;23517;50.390;8.616;2022-08-11T17:19:56;7.38;;;1.80;;
37677;SDS011;23517;50.390;8.616;2022-08-11T17:22:47;5.10;;;2.20;;
37677;SDS011;23517;50.390;8.616;2022-08-11T17:25:38;6.47;;;1.80;;
37677;SDS011;23517;50.390;8.616;2022-08-11T17:28:26;10.13;;;1.67;;
37677;SDS011;23517;50.390;8.616;2022-08-11T17:30:54;6.20;;;2.25;;
37677;SDS011;23517;50.390;8.616;2022-08-11T17:33:47;5.50;;;1.63;;
37677;SDS011;23517;50.390;8.616;2022-08-11T17:36:35;4.50;;;1.88;;
37677;SDS011;23517;50.390;8.616;2022-08-11T17:39:10;3.63;;;1.58;;
37677;SDS011;23517;50.390;8.616;2022-08-11T17:41:38;7.78;;;2.00;;
37677;SDS011;23517;50.390;8.616;2022-08-11T17:44:24;3.85;;;2.20;;
37677;SDS011;23517;50.390;8.616;2022-08-11T17:47:11;4.03;;;1.73;;
37677;SDS011;23517;50.390;8.616;2022-08-11T17:49:57;3.60;;;2.00;;
37677;SDS011;23517;50.390;8.616;2022-08-11T17:52:42;8.48;;;2.05;;
37677;SDS011;23517;50.390;8.616;2022-08-11T17:55:31;7.28;;;2.10;;
37677;SDS011;23517;50.390;8.616;2022-08-11T17:58:20;8.30;;;2.03;;
37677;SDS011;23517;50.390;8.616;2022-08-11T18:01:07;5.10;;;1.80;;
37677;SDS011;23517;50.390;8.616;2022-08-11T18:03:37;5.20;;;1.60;;
37677;SDS011;23517;50.390;8.616;2022-08-11T18:06:18;4.60;;;1.75;;
37677;SDS011;23517;50.390;8.616;2022-08-11T18:08:59;5.68;;;2.05;;
37677;SDS011;23517;50.390;8.616;2022-08-11T18:11:48;5.43;;;2.10;;
37677;SDS011;23517;50.390;8.616;2022-08-11T18:14:38;8.35;;;1.95;;
37677;SDS011;23517;50.390;8.616;2022-08-11T18:17:29;8.07;;;1.67;;
37677;SDS011;23517;50.390;8.616;2022-08-11T18:20:15;6.68;;;1.65;;
37677;SDS011;23517;50.390;8.616;2022-08-11T18:23:03;7.47;;;2.00;;
37677;SDS011;23517;50.390;8.616;2022-08-11T18:26:12;9.52;;;1.98;;
37677;SDS011;23517;50.390;8.616;2022-08-11T18:29:05;8.77;;;2.15;;
37677;SDS011;23517;50.390;8.616;2022-08-11T18:31:51;4.35;;;2.03;;
37677;SDS011;23517;50.390;8.616;2022-08-11T18:34:51;6.78;;;2.20;;
37677;SDS011;23517;50.390;8.616;2022-08-11T18:37:42;8.77;;;2.17;;
37677;SDS011;23517;50.390;8.616;2022-08-11T18:40:31;8.48;;;2.00;;
37677;SDS011;23517;50.390;8.616;2022-08-11T18:43:20;9.15;;;2.00;;
37677;SDS011;23517;50.390;8.616;2022-08-11T18:46:08;13.93;;;2.75;;
37677;SDS011;23517;50.390;8.616;2022-08-11T18:48:58;5.85;;;1.90;;
37677;SDS011;23517;50.390;8.616;2022-08-11T18:51:53;9.43;;;1.80;;
37677;SDS011;23517;50.390;8.616;2022-08-11T18:54:40;4.85;;;1.80;;
37677;SDS011;23517;50.390;8.616;2022-08-11T18:57:28;5.68;;;1.70;;
37677;SDS011;23517;50.390;8.616;2022-08-11T19:00:20;8.27;;;2.00;;
37677;SDS011;23517;50.390;8.616;2022-08-11T19:03:07;8.48;;;1.63;;
37677;SDS011;23517;50.390;8.616;2022-08-11T19:05:57;7.82;;;2.00;;
37677;SDS011;23517;50.390;8.616;2022-08-11T19:09:06;4.95;;;2.10;;
37677;SDS011;23517;50.390;8.616;2022-08-11T19:11:57;7.03;;;1.98;;
37677;SDS011;23517;50.390;8.616;2022-08-11T19:14:44;6.22;;;1.90;;
37677;SDS011;23517;50.390;8.616;2022-08-11T19:17:37;5.05;;;1.85;;
37677;SDS011;23517;50.390;8.616;2022-08-11T19:20:27;5.22;;;2.05;;
37677;SDS011;23517;50.390;8.616;2022-08-11T19:23:16;8.52;;;1.92;;
37677;SDS011;23517;50.390;8.616;2022-08-11T19:26:09;4.18;;;1.60;;
37677;SDS011;23517;50.390;8.616;2022-08-11T19:28:55;3.25;;;1.77;;
37677;SDS011;23517;50.390;8.616;2022-08-11T19:32:02;11.30;;;2.00;;
37677;SDS011;23517;50.390;8.616;2022-08-11T19:34:50;10.90;;;3.15;;
37677;SDS011;23517;50.390;8.616;2022-08-11T19:37:37;7.80;;;2.50;;